createdAt,value
2023-04-28T00:02:02.691Z,101417.97
2023-04-28T00:04:30.166Z,101418.97
2023-04-28T00:06:57.322Z,101423.81
2023-04-28T00:09:24.320Z,101426.66
2023-04-28T00:11:51.567Z,101433.22
2023-04-28T00:14:18.860Z,101424.69
2023-04-28T00:16:46.132Z,101418.44
2023-04-28T00:19:13.365Z,101422.13
2023-04-28T00:21:40.533Z,101418.75
2023-04-28T00:24:07.604Z,101423.00
2023-04-28T00:26:34.677Z,101414.63
2023-04-28T00:29:01.670Z,101417.59
2023-04-28T00:31:28.616Z,101418.59
2023-04-28T00:33:55.646Z,101413.50
2023-04-28T00:36:22.698Z,101412.09
2023-04-28T00:38:49.754Z,101413.94
2023-04-28T00:41:16.716Z,101414.78
2023-04-28T00:43:48.358Z,101416.63
2023-04-28T00:46:21.780Z,101415.09
2023-04-28T00:48:50.057Z,101415.34
2023-04-28T00:51:17.677Z,101407.25
2023-04-28T00:53:45.697Z,101409.81
2023-04-28T00:56:13.049Z,101415.50
2023-04-28T00:58:40.509Z,101412.63
2023-04-28T01:01:09.831Z,101409.09
2023-04-28T01:03:39.190Z,101411.09
2023-04-28T01:06:09.050Z,101409.69
2023-04-28T01:08:38.788Z,101412.66
2023-04-28T01:11:14.406Z,101412.50
2023-04-28T01:13:57.472Z,101422.59
2023-04-28T01:16:27.718Z,101414.34
2023-04-28T01:18:55.891Z,101407.97
2023-04-28T01:21:35.725Z,101408.81
2023-04-28T01:24:28.622Z,101404.84
2023-04-28T01:26:59.721Z,101404.28
2023-04-28T01:29:28.231Z,101414.78
2023-04-28T01:31:55.602Z,101419.34
2023-04-28T01:34:22.636Z,101405.72
2023-04-28T01:36:49.649Z,101411.09
2023-04-28T01:39:17.331Z,101410.25
2023-04-28T01:41:44.345Z,101409.09
2023-04-28T01:44:13.145Z,101409.41
2023-04-28T01:46:41.093Z,101412.81
2023-04-28T01:49:08.155Z,101409.09
2023-04-28T01:51:35.156Z,101413.09
2023-04-28T01:54:02.541Z,101408.84
2023-04-28T01:56:30.527Z,101398.91
2023-04-28T01:58:58.629Z,101405.16
2023-04-28T02:01:26.090Z,101411.66
2023-04-28T02:03:55.601Z,101409.28
2023-04-28T02:06:23.840Z,101409.53
2023-04-28T02:08:50.923Z,101412.53
2023-04-28T02:11:18.049Z,101410.81
2023-04-28T02:13:45.098Z,101407.44
2023-04-28T02:16:12.239Z,101410.13
2023-04-28T02:18:39.647Z,101419.03
2023-04-28T02:21:13.152Z,101418.34
2023-04-28T02:23:40.568Z,101415.09
2023-04-28T02:26:07.650Z,101410.94
2023-04-28T02:28:34.725Z,101408.53
2023-04-28T02:31:09.714Z,101415.63
2023-04-28T02:33:37.525Z,101415.63
2023-04-28T02:36:06.183Z,101416.50
2023-04-28T02:38:33.432Z,101416.63
2023-04-28T02:41:05.182Z,101425.56
2023-04-28T02:43:32.774Z,101423.00
2023-04-28T02:46:00.315Z,101422.16
2023-04-28T02:48:27.509Z,101426.28
2023-04-28T02:50:54.592Z,101428.97
2023-04-28T02:53:22.900Z,101429.97
2023-04-28T02:55:50.686Z,101421.03
2023-04-28T02:58:18.446Z,101417.47
2023-04-28T03:00:46.690Z,101416.75
2023-04-28T03:03:14.595Z,101404.53
2023-04-28T03:05:41.864Z,101407.25
2023-04-28T03:08:08.928Z,101409.94
2023-04-28T03:10:36.126Z,101408.22
2023-04-28T03:13:04.243Z,101400.44
2023-04-28T03:15:31.258Z,101396.03
2023-04-28T03:17:58.376Z,101390.63
2023-04-28T03:20:25.485Z,101389.19
2023-04-28T03:22:53.119Z,101386.63
2023-04-28T03:25:20.108Z,101397.41
2023-04-28T03:27:49.659Z,101401.25
2023-04-28T03:30:16.777Z,101392.31
2023-04-28T03:32:43.716Z,101384.09
2023-04-28T03:35:10.971Z,101383.25
2023-04-28T03:37:39.826Z,101390.34
2023-04-28T03:40:07.552Z,101386.06
2023-04-28T03:42:54.528Z,101382.69
2023-04-28T03:45:35.250Z,101382.69
2023-04-28T03:48:02.616Z,101386.38
2023-04-28T03:50:29.828Z,101387.34
2023-04-28T03:52:57.307Z,101386.59
2023-04-28T03:55:26.238Z,101383.91
2023-04-28T03:57:53.567Z,101374.38
2023-04-28T04:00:20.536Z,101365.00
2023-04-28T04:02:51.323Z,101375.66
2023-04-28T04:05:18.674Z,101381.78
2023-04-28T04:07:45.723Z,101380.34
2023-04-28T04:10:13.220Z,101378.63
2023-04-28T04:12:43.064Z,101380.59
2023-04-28T04:15:10.259Z,101387.72
2023-04-28T04:17:38.736Z,101389.69
2023-04-28T04:20:06.927Z,101393.38
2023-04-28T04:22:33.895Z,101402.47
2023-04-28T04:25:00.934Z,101387.16
2023-04-28T04:27:28.131Z,101396.22
2023-04-28T04:29:56.265Z,101395.66
2023-04-28T04:32:23.287Z,101387.69
2023-04-28T04:34:50.354Z,101393.06
2023-04-28T04:37:17.720Z,101380.88
2023-04-28T04:39:58.235Z,101381.97
2023-04-28T04:42:26.089Z,101383.81
2023-04-28T04:45:08.839Z,101380.56
2023-04-28T04:47:36.671Z,101382.56
2023-04-28T04:50:04.003Z,101390.75
2023-04-28T04:52:31.477Z,101393.56
2023-04-28T04:54:58.635Z,101390.88
2023-04-28T04:57:26.117Z,101389.34
2023-04-28T05:00:08.056Z,101388.47
2023-04-28T05:02:35.688Z,101390.03
2023-04-28T05:05:16.896Z,101398.97
2023-04-28T05:07:52.778Z,101398.72
2023-04-28T05:10:21.696Z,101403.09
2023-04-28T05:12:49.277Z,101407.25
2023-04-28T05:15:18.291Z,101401.69
2023-04-28T05:17:59.517Z,101412.34
2023-04-28T05:20:37.253Z,101403.00
2023-04-28T05:23:04.336Z,101409.13
2023-04-28T05:25:32.136Z,101405.16
2023-04-28T05:28:04.935Z,101416.38
2023-04-28T05:30:32.084Z,101414.13
2023-04-28T05:32:59.340Z,101413.81
2023-04-28T05:35:27.554Z,101411.31
2023-04-28T05:37:54.620Z,101410.50
2023-04-28T05:40:21.804Z,101420.69
2023-04-28T05:42:48.817Z,101410.50
2023-04-28T05:45:15.990Z,101406.97
2023-04-28T05:47:43.081Z,101418.88
2023-04-28T05:50:10.772Z,101415.63
2023-04-28T05:52:37.859Z,101425.16
2023-04-28T05:55:05.078Z,101426.75
2023-04-28T05:57:38.802Z,101426.16
2023-04-28T06:00:13.407Z,101436.38
2023-04-28T06:02:40.770Z,101428.16
2023-04-28T06:05:10.059Z,101429.69
2023-04-28T06:07:37.713Z,101433.22
2023-04-28T06:10:06.074Z,101429.13
2023-04-28T06:12:32.961Z,101428.41
2023-04-28T06:15:01.214Z,101429.25
2023-04-28T06:17:28.421Z,101421.31
2023-04-28T06:19:55.922Z,101434.78
2023-04-28T06:22:22.857Z,101433.63
2023-04-28T06:24:49.829Z,101428.63
2023-04-28T06:27:20.671Z,101440.47
2023-04-28T06:29:49.573Z,101439.59
2023-04-28T06:32:16.499Z,101439.63
2023-04-28T06:34:43.611Z,101432.81
2023-04-28T06:37:20.719Z,101432.72
2023-04-28T06:39:48.220Z,101441.56
2023-04-28T06:42:18.988Z,101438.47
2023-04-28T06:44:53.303Z,101434.63
2023-04-28T06:47:20.313Z,101434.00
2023-04-28T06:49:50.154Z,101430.34
2023-04-28T06:52:17.341Z,101435.81
2023-04-28T06:54:44.300Z,101426.97
2023-04-28T06:57:11.549Z,101435.44
2023-04-28T06:59:38.548Z,101440.63
2023-04-28T07:02:05.698Z,101440.72
2023-04-28T07:04:32.737Z,101441.56
2023-04-28T07:06:59.706Z,101450.97
2023-04-28T07:09:26.680Z,101445.09
2023-04-28T07:11:54.068Z,101458.84
2023-04-28T07:14:21.177Z,101459.91
2023-04-28T07:16:48.177Z,101456.84
2023-04-28T07:19:15.321Z,101455.38
2023-04-28T07:21:42.293Z,101462.66
2023-04-28T07:24:09.287Z,101464.88
2023-04-28T07:26:36.381Z,101467.34
2023-04-28T07:29:03.350Z,101466.47
2023-04-28T07:31:30.434Z,101470.41
2023-04-28T07:33:57.375Z,101475.34
2023-04-28T07:36:24.304Z,101481.56
2023-04-28T07:38:51.376Z,101476.53
2023-04-28T07:41:18.945Z,101479.41
2023-04-28T07:43:45.936Z,101470.78
2023-04-28T07:46:13.574Z,101481.78
2023-04-28T07:48:40.706Z,101478.34
2023-04-28T07:51:07.650Z,101479.34
2023-04-28T07:53:35.314Z,101484.19
2023-04-28T07:56:02.486Z,101481.84
2023-04-28T07:58:29.514Z,101491.63
2023-04-28T08:00:56.555Z,101489.66
2023-04-28T08:03:23.684Z,101505.38
2023-04-28T08:05:50.952Z,101501.78
2023-04-28T08:08:18.473Z,101502.84
2023-04-28T08:10:45.904Z,101501.28
2023-04-28T08:13:13.058Z,101501.56
2023-04-28T08:15:40.458Z,101496.53
2023-04-28T08:18:07.719Z,101502.00
2023-04-28T08:20:34.889Z,101502.13
2023-04-28T08:23:01.805Z,101490.22
2023-04-28T08:25:28.824Z,101498.78
2023-04-28T08:27:57.459Z,101512.16
2023-04-28T08:30:24.929Z,101510.56
2023-04-28T08:32:51.911Z,101504.34
2023-04-28T08:35:19.499Z,101502.06
2023-04-28T08:37:49.516Z,101505.75
2023-04-28T08:40:16.596Z,101510.75
2023-04-28T08:42:46.031Z,101512.84
2023-04-28T08:45:17.168Z,101513.56
2023-04-28T08:47:49.682Z,101504.84
2023-04-28T08:50:22.651Z,101506.72
2023-04-28T08:52:52.849Z,101505.22
2023-04-28T08:55:20.319Z,101501.09
2023-04-28T08:57:51.567Z,101502.88
2023-04-28T09:00:18.819Z,101493.53
2023-04-28T09:02:45.876Z,101481.09
2023-04-28T09:05:14.329Z,101492.53
2023-04-28T09:07:41.736Z,101486.41
2023-04-28T09:10:20.708Z,101484.72
2023-04-28T09:12:49.486Z,101497.69
2023-04-28T09:15:41.058Z,101507.63
2023-04-28T09:18:08.670Z,101501.69
2023-04-28T09:20:37.159Z,101506.09
2023-04-28T09:23:17.703Z,101507.59
2023-04-28T09:26:06.519Z,101507.00
2023-04-28T09:28:35.222Z,101513.75
2023-04-28T09:31:03.105Z,101499.81
2023-04-28T09:33:37.148Z,101477.44
2023-04-28T09:36:04.311Z,101479.25
2023-04-28T09:38:31.359Z,101482.31
2023-04-28T09:40:59.821Z,101476.91
2023-04-28T09:43:31.730Z,101479.03
2023-04-28T09:46:00.855Z,101487.47
2023-04-28T09:48:29.113Z,101488.34
2023-04-28T09:50:57.155Z,101492.31
2023-04-28T09:53:24.836Z,101496.69
2023-04-28T09:55:57.033Z,101487.34
2023-04-28T09:58:26.022Z,101496.63
2023-04-28T10:00:58.290Z,101490.03
2023-04-28T10:03:29.571Z,101490.66
2023-04-28T10:05:58.988Z,101489.00
2023-04-28T10:08:28.406Z,101496.72
2023-04-28T10:10:57.049Z,101491.00
2023-04-28T10:13:24.498Z,101490.63
2023-04-28T10:15:55.609Z,101490.47
2023-04-28T10:18:24.569Z,101496.38
2023-04-28T10:21:00.416Z,101503.22
2023-04-28T10:23:52.116Z,101506.47
2023-04-28T10:26:20.284Z,101512.75
2023-04-28T10:28:52.318Z,101499.19
2023-04-28T10:31:21.557Z,101497.19
2023-04-28T10:33:49.622Z,101505.81
2023-04-28T10:36:55.987Z,101493.66
2023-04-28T10:39:23.348Z,101505.25
2023-04-28T10:41:50.361Z,101511.78
2023-04-28T10:44:29.166Z,101503.38
2023-04-28T10:47:09.849Z,101506.38
2023-04-28T10:49:55.145Z,101506.72
2023-04-28T10:52:37.902Z,101500.06
2023-04-28T10:55:36.964Z,101499.13
2023-04-28T10:58:30.037Z,101502.75
2023-04-28T11:01:24.873Z,101497.81
2023-04-28T11:04:10.846Z,101500.28
2023-04-28T11:07:07.947Z,101492.03
2023-04-28T11:09:34.872Z,101490.44
2023-04-28T11:12:06.029Z,101486.22
2023-04-28T11:14:35.777Z,101498.09
2023-04-28T11:17:13.704Z,101495.78
2023-04-28T11:19:41.986Z,101496.94
2023-04-28T11:22:23.743Z,101488.50
2023-04-28T11:25:10.949Z,101480.81
2023-04-28T11:27:37.901Z,101472.81
2023-04-28T11:30:20.260Z,101477.44
2023-04-28T11:32:50.570Z,101476.72
2023-04-28T11:35:17.582Z,101482.16
2023-04-28T11:37:44.557Z,101466.50
2023-04-28T11:40:13.185Z,101464.19
2023-04-28T11:42:49.345Z,101458.44
2023-04-28T11:45:16.383Z,101452.13
2023-04-28T11:47:43.514Z,101449.72
2023-04-28T11:50:11.204Z,101458.66
2023-04-28T11:52:50.851Z,101453.03
2023-04-28T11:55:19.585Z,101445.22
2023-04-28T11:57:46.801Z,101448.41
2023-04-28T12:00:22.782Z,101443.69
2023-04-28T12:02:50.075Z,101445.75
2023-04-28T12:05:17.352Z,101433.19
2023-04-28T12:07:45.725Z,101432.84
2023-04-28T12:10:16.013Z,101443.63
2023-04-28T12:12:50.847Z,101437.91
2023-04-28T12:15:20.644Z,101438.59
2023-04-28T12:17:48.818Z,101436.91
2023-04-28T12:20:43.674Z,101437.47
2023-04-28T12:23:10.702Z,101429.44
2023-04-28T12:25:45.120Z,101429.13
2023-04-28T12:28:12.539Z,101423.69
2023-04-28T12:30:42.147Z,101432.66
2023-04-28T12:33:29.175Z,101431.28
2023-04-28T12:35:57.281Z,101427.03
2023-04-28T12:38:25.146Z,101432.13
2023-04-28T12:40:53.079Z,101422.28
2023-04-28T12:43:23.217Z,101436.59
2023-04-28T12:45:51.383Z,101434.88
2023-04-28T12:48:18.601Z,101426.38
2023-04-28T12:50:46.271Z,101426.38
2023-04-28T12:53:13.183Z,101432.47
2023-04-28T12:55:40.699Z,101438.41
2023-04-28T12:58:11.415Z,101434.19
2023-04-28T13:00:45.313Z,101432.34
2023-04-28T13:03:12.413Z,101419.19
2023-04-28T13:05:43.256Z,101421.41
2023-04-28T13:08:10.342Z,101425.88
2023-04-28T13:10:37.964Z,101431.69
2023-04-28T13:13:05.587Z,101418.22
2023-04-28T13:15:32.507Z,101417.34
2023-04-28T13:18:00.328Z,101412.44
2023-04-28T13:20:30.792Z,101404.28
2023-04-28T13:22:57.815Z,101406.66
2023-04-28T13:25:24.880Z,101404.28
2023-04-28T13:27:52.084Z,101412.44
2023-04-28T13:30:18.971Z,101407.34
2023-04-28T13:32:45.995Z,101407.25
2023-04-28T13:35:20.358Z,101402.59
2023-04-28T13:37:47.268Z,101401.75
2023-04-28T13:40:14.219Z,101392.25
2023-04-28T13:42:41.374Z,101389.00
2023-04-28T13:45:08.572Z,101389.94
2023-04-28T13:47:35.674Z,101392.22
2023-04-28T13:50:03.624Z,101378.94
2023-04-28T13:52:30.970Z,101365.56
2023-04-28T13:54:58.077Z,101370.78
2023-04-28T13:57:34.981Z,101362.19
2023-04-28T14:00:02.394Z,101364.53
2023-04-28T14:02:35.101Z,101349.94
2023-04-28T14:05:02.113Z,101356.75
2023-04-28T14:07:29.030Z,101356.09
2023-04-28T14:09:56.004Z,101361.47
2023-04-28T14:12:22.903Z,101342.81
2023-04-28T14:14:50.240Z,101339.25
2023-04-28T14:17:17.387Z,101339.75
2023-04-28T14:19:44.759Z,101335.31
2023-04-28T14:22:12.052Z,101334.66
2023-04-28T14:24:39.467Z,101330.31
2023-04-28T14:27:07.543Z,101316.97
2023-04-28T14:29:34.488Z,101323.41
2023-04-28T14:32:01.657Z,101319.06
2023-04-28T14:34:29.192Z,101332.03
2023-04-28T14:36:56.327Z,101319.91
2023-04-28T14:39:24.550Z,101323.03
2023-04-28T14:41:51.580Z,101323.47
2023-04-28T14:44:18.678Z,101307.50
2023-04-28T14:46:45.702Z,101307.00
2023-04-28T14:49:12.867Z,101299.72
2023-04-28T14:51:40.060Z,101308.66
2023-04-28T14:54:09.241Z,101312.81
2023-04-28T14:56:36.209Z,101314.91
2023-04-28T14:59:03.599Z,101313.75
2023-04-28T15:01:31.000Z,101299.00
2023-04-28T15:03:58.706Z,101292.94
2023-04-28T15:06:26.289Z,101287.66
2023-04-28T15:08:53.353Z,101276.31
2023-04-28T15:11:20.287Z,101268.72
2023-04-28T15:13:47.242Z,101282.41
2023-04-28T15:16:14.555Z,101291.44
2023-04-28T15:18:41.659Z,101275.97
2023-04-28T15:21:08.841Z,101270.00
2023-04-28T15:23:35.847Z,101282.38
2023-04-28T15:26:03.714Z,101280.81
2023-04-28T15:28:30.715Z,101286.19
2023-04-28T15:30:57.637Z,101283.66
2023-04-28T15:33:24.918Z,101280.69
2023-04-28T15:35:51.896Z,101275.59
2023-04-28T15:38:19.042Z,101274.25
2023-04-28T15:40:46.342Z,101266.47
2023-04-28T15:43:13.890Z,101259.38
2023-04-28T15:45:44.174Z,101265.13
2023-04-28T15:48:12.238Z,101271.53
2023-04-28T15:50:40.199Z,101256.47
2023-04-28T15:53:07.257Z,101258.63
2023-04-28T15:55:34.374Z,101252.16
2023-04-28T15:58:02.212Z,101262.16
2023-04-28T16:00:29.220Z,101246.34
2023-04-28T16:02:56.335Z,101255.97
2023-04-28T16:05:23.531Z,101254.63
2023-04-28T16:07:52.697Z,101261.56
2023-04-28T16:10:19.703Z,101255.94
2023-04-28T16:12:47.534Z,101257.75
2023-04-28T16:15:14.922Z,101248.28
2023-04-28T16:17:42.483Z,101251.91
2023-04-28T16:20:10.584Z,101251.41
2023-04-28T16:22:39.161Z,101244.03
2023-04-28T16:25:07.100Z,101254.06
2023-04-28T16:27:35.274Z,101246.44
2023-04-28T16:30:02.557Z,101230.53
2023-04-28T16:32:30.701Z,101242.03
2023-04-28T16:34:58.139Z,101242.06
2023-04-28T16:37:25.585Z,101237.09
2023-04-28T16:39:52.862Z,101238.28
2023-04-28T16:42:22.713Z,101236.09
2023-04-28T16:44:52.433Z,101231.16
2023-04-28T16:47:20.240Z,101236.25
2023-04-28T16:49:48.115Z,101250.50
2023-04-28T16:52:15.335Z,101235.50
2023-04-28T16:54:42.264Z,101244.38
2023-04-28T16:57:09.323Z,101234.53
2023-04-28T16:59:36.379Z,101218.63
2023-04-28T17:02:07.091Z,101216.28
2023-04-28T17:04:34.751Z,101213.56
2023-04-28T17:07:04.714Z,101211.44
2023-04-28T17:09:33.378Z,101208.69
2023-04-28T17:12:01.169Z,101216.19
2023-04-28T17:14:28.356Z,101210.41
2023-04-28T17:16:56.032Z,101207.38
2023-04-28T17:19:23.848Z,101206.34
2023-04-28T17:21:52.861Z,101209.94
2023-04-28T17:24:19.976Z,101215.16
2023-04-28T17:26:47.207Z,101210.53
2023-04-28T17:29:14.249Z,101207.34
2023-04-28T17:31:41.333Z,101208.78
2023-04-28T17:34:08.432Z,101200.84
2023-04-28T17:36:35.456Z,101195.97
2023-04-28T17:39:04.662Z,101193.75
2023-04-28T17:41:31.980Z,101205.72
2023-04-28T17:43:59.059Z,101193.38
2023-04-28T17:46:26.401Z,101193.19
2023-04-28T17:48:53.446Z,101189.97
2023-04-28T17:51:20.784Z,101193.34
2023-04-28T17:53:48.948Z,101207.84
2023-04-28T17:56:16.503Z,101199.47
2023-04-28T17:58:43.572Z,101201.63
2023-04-28T18:01:10.582Z,101193.94
2023-04-28T18:03:38.968Z,101194.78
2023-04-28T18:06:08.066Z,101186.16
2023-04-28T18:08:36.876Z,101194.88
2023-04-28T18:11:05.025Z,101188.94
2023-04-28T18:13:32.990Z,101190.00
2023-04-28T18:16:00.663Z,101189.81
2023-04-28T18:18:29.833Z,101190.66
2023-04-28T18:20:59.771Z,101195.22
2023-04-28T18:23:27.542Z,101196.97
2023-04-28T18:25:54.697Z,101196.69
2023-04-28T18:28:21.797Z,101189.47
2023-04-28T18:30:48.812Z,101192.97
2023-04-28T18:33:19.460Z,101208.63
2023-04-28T18:35:48.376Z,101217.88
2023-04-28T18:38:15.502Z,101221.66
2023-04-28T18:40:42.458Z,101213.59
2023-04-28T18:43:12.158Z,101212.75
2023-04-28T18:45:41.321Z,101214.69
2023-04-28T18:48:10.918Z,101215.00
2023-04-28T18:50:38.253Z,101215.53
2023-04-28T18:53:05.484Z,101213.41
2023-04-28T18:55:33.583Z,101205.69
2023-04-28T18:58:02.213Z,101205.75
2023-04-28T19:00:29.531Z,101207.72
2023-04-28T19:02:56.898Z,101202.56
2023-04-28T19:05:24.227Z,101212.38
2023-04-28T19:07:51.126Z,101216.16
2023-04-28T19:10:18.241Z,101222.41
2023-04-28T19:12:45.235Z,101227.13
2023-04-28T19:15:12.477Z,101225.59
2023-04-28T19:17:39.718Z,101214.94
2023-04-28T19:20:07.518Z,101219.34
2023-04-28T19:22:44.523Z,101230.44
2023-04-28T19:25:12.163Z,101229.44
2023-04-28T19:27:40.917Z,101227.44
2023-04-28T19:30:10.483Z,101233.69
2023-04-28T19:32:37.938Z,101223.56
2023-04-28T19:35:05.480Z,101222.75
2023-04-28T19:37:34.268Z,101220.53
2023-04-28T19:40:03.063Z,101225.25
2023-04-28T19:42:30.749Z,101225.94
2023-04-28T19:44:59.137Z,101232.13
2023-04-28T19:47:27.456Z,101238.94
2023-04-28T19:49:54.833Z,101231.38
2023-04-28T19:52:22.884Z,101234.00
2023-04-28T19:54:50.532Z,101237.91
2023-04-28T19:57:18.902Z,101229.97
2023-04-28T19:59:46.779Z,101233.91
2023-04-28T20:02:18.457Z,101242.56
2023-04-28T20:04:46.738Z,101234.97
2023-04-28T20:07:14.220Z,101239.91
2023-04-28T20:09:41.256Z,101239.25
2023-04-28T20:12:09.440Z,101235.81
2023-04-28T20:14:37.282Z,101235.50
2023-04-28T20:17:05.204Z,101232.19
2023-04-28T20:19:32.300Z,101228.16
2023-04-28T20:22:01.957Z,101229.16
2023-04-28T20:24:34.264Z,101230.56
2023-04-28T20:27:04.956Z,101233.25
2023-04-28T20:29:34.831Z,101234.44
2023-04-28T20:32:02.722Z,101230.59
2023-04-28T20:34:34.492Z,101229.59
2023-04-28T20:37:03.613Z,101225.88
2023-04-28T20:39:30.824Z,101216.75
2023-04-28T20:41:59.808Z,101209.63
2023-04-28T20:44:27.049Z,101215.03
2023-04-28T20:46:54.090Z,101213.03
2023-04-28T20:49:21.366Z,101211.03
2023-04-28T20:51:48.458Z,101211.03
2023-04-28T20:54:15.656Z,101211.84
2023-04-28T20:56:43.157Z,101213.75
2023-04-28T20:59:10.122Z,101210.84
2023-04-28T21:01:37.272Z,101207.28
2023-04-28T21:04:04.392Z,101209.00
2023-04-28T21:06:31.402Z,101212.72
2023-04-28T21:08:58.377Z,101208.34
2023-04-28T21:11:25.365Z,101210.00
2023-04-28T21:13:52.542Z,101210.72
2023-04-28T21:16:21.469Z,101207.00
2023-04-28T21:18:49.392Z,101192.75
2023-04-28T21:21:17.287Z,101197.31
2023-04-28T21:23:44.480Z,101184.78
2023-04-28T21:26:11.779Z,101181.94
2023-04-28T21:28:40.072Z,101190.38
2023-04-28T21:31:07.321Z,101191.41
2023-04-28T21:33:37.937Z,101185.97
2023-04-28T21:36:09.339Z,101186.31
2023-04-28T21:38:39.773Z,101185.75
2023-04-28T21:41:12.505Z,101184.59
2023-04-28T21:43:40.383Z,101185.47
2023-04-28T21:46:07.446Z,101177.50
2023-04-28T21:48:34.438Z,101170.38
2023-04-28T21:51:01.472Z,101164.97
2023-04-28T21:53:29.020Z,101158.69
2023-04-28T21:55:56.029Z,101163.25
2023-04-28T21:58:22.986Z,101155.84
2023-04-28T22:00:50.028Z,101150.78
2023-04-28T22:03:17.218Z,101137.91
2023-04-28T22:05:45.161Z,101134.53
2023-04-28T22:08:17.155Z,101141.63
2023-04-28T22:10:45.735Z,101132.50
2023-04-28T22:13:13.511Z,101134.22
2023-04-28T22:15:40.536Z,101135.22
2023-04-28T22:18:08.389Z,101122.69
2023-04-28T22:20:35.960Z,101121.00
2023-04-28T22:23:03.065Z,101129.13
2023-04-28T22:25:30.046Z,101127.28
2023-04-28T22:27:56.983Z,101132.50
2023-04-28T22:30:26.170Z,101129.13
2023-04-28T22:32:53.673Z,101110.84
2023-04-28T22:35:21.833Z,101094.63
2023-04-28T22:37:48.837Z,101094.63
2023-04-28T22:40:16.026Z,101092.94
2023-04-28T22:42:43.660Z,101106.44
2023-04-28T22:45:11.261Z,101107.16
2023-04-28T22:47:40.876Z,101104.59
2023-04-28T22:50:09.469Z,101089.22
2023-04-28T22:52:36.950Z,101081.09
2023-04-28T22:55:04.793Z,101083.81
2023-04-28T22:57:31.804Z,101088.06
2023-04-28T22:59:58.782Z,101074.69
2023-04-28T23:02:25.912Z,101087.50
2023-04-28T23:04:53.308Z,101087.50
2023-04-28T23:07:20.778Z,101091.25
2023-04-28T23:09:47.848Z,101087.69
2023-04-28T23:12:14.874Z,101086.16
2023-04-28T23:14:41.884Z,101080.75
2023-04-28T23:17:08.933Z,101079.88
2023-04-28T23:19:39.263Z,101078.50
2023-04-28T23:22:08.015Z,101086.47
2023-04-28T23:24:37.267Z,101084.94
2023-04-28T23:27:04.810Z,101090.81
2023-04-28T23:29:32.598Z,101089.16
2023-04-28T23:31:59.759Z,101104.47
2023-04-28T23:34:27.157Z,101097.19
2023-04-28T23:36:54.282Z,101094.50
2023-04-28T23:39:21.232Z,101083.31
2023-04-28T23:41:49.486Z,101079.94
2023-04-28T23:44:17.234Z,101076.53
2023-04-28T23:46:44.237Z,101077.38
2023-04-28T23:49:11.240Z,101069.41
2023-04-28T23:51:38.320Z,101065.03
2023-04-28T23:54:05.310Z,101051.69
2023-04-28T23:56:32.218Z,101048.44
2023-04-28T23:58:59.128Z,101049.59
